Time;durP1;ratioP1;P1;durP2;ratioP2;P2;SDS_P1;SDS_P2;PMS_P1;PMS_P2;Temp;Humidity;BMP_temperature;BMP_pressure;BME280_temperature;BME280_humidity;BME280_pressure;Samples;Min_cycle;Max_cycle;Signal;HPM_P1;HPM_P2
2021/11/23 00:02:19;;;;;;;7.63;5.00;;;;;;;;;;5031319;28;20037;-83
2021/11/23 00:04:44;;;;;;;7.95;5.07;;;;;;;;;;5016726;28;20049;-82
2021/11/23 00:07:09;;;;;;;7.65;4.75;;;;;;;;;;5034396;28;20035;-82
2021/11/23 00:09:35;;;;;;;9.82;4.82;;;;;;;;;;5038349;28;20021;-83
2021/11/23 00:12:00;;;;;;;7.63;5.22;;;;;;;;;;5007544;28;20409;-79
2021/11/23 00:14:26;;;;;;;8.57;4.97;;;;;;;;;;4993505;28;20022;-83
2021/11/23 00:16:51;;;;;;;8.43;4.80;;;;;;;;;;5018723;28;20156;-79
2021/11/23 00:19:16;;;;;;;9.02;4.65;;;;;;;;;;4997234;28;20052;-81
2021/11/23 00:21:42;;;;;;;9.50;5.30;;;;;;;;;;5012162;28;20117;-83
2021/11/23 00:24:08;;;;;;;9.82;5.10;;;;;;;;;;4997471;28;20428;-81
2021/11/23 00:26:34;;;;;;;8.98;5.05;;;;;;;;;;4997194;28;20049;-81
2021/11/23 00:29:00;;;;;;;8.35;5.10;;;;;;;;;;5013314;28;20041;-83
2021/11/23 00:31:26;;;;;;;7.95;4.82;;;;;;;;;;5005277;28;20036;-81
2021/11/23 00:33:51;;;;;;;9.43;5.18;;;;;;;;;;5014250;28;20030;-79
2021/11/23 00:36:17;;;;;;;9.63;4.72;;;;;;;;;;4996836;28;20029;-83
2021/11/23 00:38:42;;;;;;;7.47;4.72;;;;;;;;;;4999863;28;20029;-83
2021/11/23 00:41:13;;;;;;;9.50;5.10;;;;;;;;;;5002249;28;20030;-80
2021/11/23 00:43:39;;;;;;;7.55;4.63;;;;;;;;;;5006183;28;20489;-82
2021/11/23 00:46:05;;;;;;;8.65;5.07;;;;;;;;;;5013930;28;20029;-83
2021/11/23 00:48:30;;;;;;;7.70;4.68;;;;;;;;;;4999284;28;20128;-81
2021/11/23 00:50:56;;;;;;;8.20;5.00;;;;;;;;;;5005887;28;20021;-81
2021/11/23 00:53:21;;;;;;;9.50;5.10;;;;;;;;;;5008719;28;20088;-82
2021/11/23 00:55:47;;;;;;;8.32;5.50;;;;;;;;;;5012505;28;20065;-80
2021/11/23 00:58:12;;;;;;;9.02;4.90;;;;;;;;;;4995866;28;20033;-82
2021/11/23 01:00:37;;;;;;;9.13;5.32;;;;;;;;;;4995477;28;20088;-82
2021/11/23 01:03:03;;;;;;;7.50;4.75;;;;;;;;;;5010931;28;20045;-79
2021/11/23 01:05:28;;;;;;;10.70;5.28;;;;;;;;;;4996179;28;20370;-81
2021/11/23 01:07:55;;;;;;;9.43;5.10;;;;;;;;;;4992730;28;20026;-82
2021/11/23 01:10:21;;;;;;;8.20;5.15;;;;;;;;;;5007454;28;20109;-80
2021/11/23 01:12:49;;;;;;;8.88;4.88;;;;;;;;;;5004420;28;20192;-79
2021/11/23 01:15:15;;;;;;;9.70;5.20;;;;;;;;;;5005391;28;20034;-79
2021/11/23 01:17:40;;;;;;;9.30;4.80;;;;;;;;;;5015494;28;20369;-81
2021/11/23 01:20:09;;;;;;;8.55;5.13;;;;;;;;;;5031573;28;20100;-81
2021/11/23 01:22:36;;;;;;;8.68;4.70;;;;;;;;;;5032823;28;20550;-79
2021/11/23 01:25:01;;;;;;;8.23;4.93;;;;;;;;;;5030472;28;20380;-81
2021/11/23 01:27:27;;;;;;;12.07;5.00;;;;;;;;;;5026632;28;20025;-82
2021/11/23 01:29:52;;;;;;;9.35;5.25;;;;;;;;;;5031801;28;20048;-82
2021/11/23 01:32:18;;;;;;;10.98;6.00;;;;;;;;;;5032768;28;20123;-81
2021/11/23 01:34:43;;;;;;;10.43;5.82;;;;;;;;;;5031283;28;20083;-79
2021/11/23 01:37:08;;;;;;;9.90;6.30;;;;;;;;;;5014037;28;20450;-83
2021/11/23 01:39:34;;;;;;;11.57;6.00;;;;;;;;;;5013937;28;20025;-82
2021/11/23 01:42:00;;;;;;;11.65;5.50;;;;;;;;;;5015389;28;20033;-79
2021/11/23 01:44:25;;;;;;;8.70;5.68;;;;;;;;;;5022910;28;20025;-81
2021/11/23 01:46:50;;;;;;;9.30;5.93;;;;;;;;;;5010384;28;20030;-82
2021/11/23 01:49:16;;;;;;;10.63;6.28;;;;;;;;;;5037933;28;20109;-80
2021/11/23 01:51:42;;;;;;;11.52;6.05;;;;;;;;;;5015105;28;20435;-79
2021/11/23 01:54:08;;;;;;;8.65;5.65;;;;;;;;;;5014830;28;20510;-83
2021/11/23 01:56:33;;;;;;;11.32;5.72;;;;;;;;;;5012413;28;20108;-82
2021/11/23 01:58:59;;;;;;;10.15;5.75;;;;;;;;;;5007476;28;20014;-79
2021/11/23 02:01:24;;;;;;;10.73;5.95;;;;;;;;;;5030527;28;20033;-82
2021/11/23 02:03:50;;;;;;;14.07;6.50;;;;;;;;;;5016498;28;20090;-82
2021/11/23 02:06:16;;;;;;;10.15;6.45;;;;;;;;;;5032177;28;20036;-83
2021/11/23 02:08:41;;;;;;;9.70;6.22;;;;;;;;;;5014765;28;20037;-81
2021/11/23 02:11:07;;;;;;;15.48;6.03;;;;;;;;;;5012611;28;20032;-78
2021/11/23 02:13:33;;;;;;;11.88;5.90;;;;;;;;;;5009712;28;20095;-81
2021/11/23 02:15:59;;;;;;;9.52;5.80;;;;;;;;;;5027879;28;20029;-81
2021/11/23 02:18:26;;;;;;;14.32;6.10;;;;;;;;;;5026627;28;20061;-83
2021/11/23 02:20:52;;;;;;;9.88;6.18;;;;;;;;;;5029616;28;20040;-80
2021/11/23 02:23:18;;;;;;;11.93;6.65;;;;;;;;;;5014737;28;20035;-78
2021/11/23 02:25:44;;;;;;;10.27;6.05;;;;;;;;;;5028414;28;20030;-81
2021/11/23 02:28:11;;;;;;;10.77;6.28;;;;;;;;;;5025958;28;20029;-79
2021/11/23 02:30:42;;;;;;;13.30;6.25;;;;;;;;;;5030367;28;20037;-82
2021/11/23 02:33:07;;;;;;;14.05;6.10;;;;;;;;;;5029889;28;20030;-81
2021/11/23 02:35:33;;;;;;;12.30;6.43;;;;;;;;;;5014220;28;20052;-81
2021/11/23 02:37:59;;;;;;;14.35;6.18;;;;;;;;;;5030739;28;20032;-78
2021/11/23 02:40:25;;;;;;;9.45;5.63;;;;;;;;;;5032383;28;20029;-78
2021/11/23 02:42:51;;;;;;;9.27;5.57;;;;;;;;;;5030339;28;20370;-82
2021/11/23 02:45:19;;;;;;;10.75;5.95;;;;;;;;;;5032602;28;20029;-80
2021/11/23 02:47:45;;;;;;;11.57;5.57;;;;;;;;;;5013480;28;20105;-83
2021/11/23 02:50:14;;;;;;;10.93;6.25;;;;;;;;;;5015028;28;20116;-83
2021/11/23 02:52:42;;;;;;;9.63;5.32;;;;;;;;;;5030294;28;20083;-82
2021/11/23 02:55:08;;;;;;;12.00;6.13;;;;;;;;;;5033726;28;20444;-80
2021/11/23 02:57:35;;;;;;;10.43;5.70;;;;;;;;;;5015249;28;20053;-80
2021/11/23 03:00:05;;;;;;;12.60;5.63;;;;;;;;;;5024200;28;20116;-80
2021/11/23 03:02:31;;;;;;;10.27;5.45;;;;;;;;;;5028764;28;20021;-80
2021/11/23 03:04:57;;;;;;;9.50;5.65;;;;;;;;;;5030411;28;20523;-78
2021/11/23 03:07:24;;;;;;;8.48;5.50;;;;;;;;;;5011294;28;20674;-84
2021/11/23 03:09:51;;;;;;;8.43;5.13;;;;;;;;;;5007615;28;20095;-79
2021/11/23 03:12:19;;;;;;;12.40;5.50;;;;;;;;;;5032195;28;20516;-82
2021/11/23 03:14:45;;;;;;;8.73;5.28;;;;;;;;;;5011413;28;20036;-79
2021/11/23 03:17:13;;;;;;;10.13;5.25;;;;;;;;;;4994983;28;20036;-83
2021/11/23 03:19:38;;;;;;;10.70;4.97;;;;;;;;;;5012927;28;20417;-82
2021/11/23 03:22:04;;;;;;;8.18;5.28;;;;;;;;;;5006163;28;20064;-82
2021/11/23 03:24:30;;;;;;;10.30;5.55;;;;;;;;;;5030702;28;20033;-84
2021/11/23 03:26:56;;;;;;;9.38;5.70;;;;;;;;;;5027794;28;20030;-84
2021/11/23 03:29:21;;;;;;;9.70;5.20;;;;;;;;;;5014621;28;20044;-79
2021/11/23 03:31:47;;;;;;;9.98;5.32;;;;;;;;;;5030286;28;20112;-81
2021/11/23 03:34:14;;;;;;;9.68;5.43;;;;;;;;;;5005647;28;20026;-80
2021/11/23 03:36:40;;;;;;;9.68;5.38;;;;;;;;;;5025957;28;20077;-83
2021/11/23 03:39:07;;;;;;;9.00;5.28;;;;;;;;;;5029949;28;20052;-79
2021/11/23 03:41:33;;;;;;;10.07;5.40;;;;;;;;;;5024596;28;20045;-78
2021/11/23 03:43:59;;;;;;;9.75;5.18;;;;;;;;;;5025975;28;20036;-82
2021/11/23 03:46:24;;;;;;;10.38;5.70;;;;;;;;;;5025734;28;20105;-82
2021/11/23 03:48:49;;;;;;;9.80;4.95;;;;;;;;;;5010681;28;20033;-82
2021/11/23 03:51:15;;;;;;;9.63;4.80;;;;;;;;;;5006440;28;20064;-81
2021/11/23 03:53:40;;;;;;;9.40;5.05;;;;;;;;;;5015501;28;20117;-81
2021/11/23 03:56:06;;;;;;;9.05;5.38;;;;;;;;;;5030767;28;20910;-82
2021/11/23 03:58:32;;;;;;;8.48;5.05;;;;;;;;;;5016271;28;20045;-82
2021/11/23 04:00:57;;;;;;;12.70;5.40;;;;;;;;;;5009912;28;20037;-82
2021/11/23 04:03:22;;;;;;;15.93;5.63;;;;;;;;;;5020305;28;20033;-83
2021/11/23 04:05:48;;;;;;;9.95;5.20;;;;;;;;;;5025788;28;22542;-81
2021/11/23 04:08:13;;;;;;;13.05;5.00;;;;;;;;;;5013440;28;20033;-81
2021/11/23 04:10:39;;;;;;;10.70;4.80;;;;;;;;;;5033930;28;20384;-82
2021/11/23 04:13:04;;;;;;;8.82;4.68;;;;;;;;;;5032210;28;20232;-80
2021/11/23 04:15:30;;;;;;;8.30;4.88;;;;;;;;;;5032371;28;20353;-83
2021/11/23 04:17:55;;;;;;;12.52;5.35;;;;;;;;;;5017637;28;20059;-83
2021/11/23 04:20:20;;;;;;;9.35;4.88;;;;;;;;;;5029098;28;20033;-82
2021/11/23 04:22:46;;;;;;;7.50;4.68;;;;;;;;;;5015700;28;20072;-82
2021/11/23 04:25:12;;;;;;;8.65;4.70;;;;;;;;;;5036272;28;20082;-82
2021/11/23 04:27:38;;;;;;;10.48;5.00;;;;;;;;;;5012345;28;20032;-80
2021/11/23 04:30:06;;;;;;;12.85;4.93;;;;;;;;;;5022571;28;20029;-83
2021/11/23 04:32:31;;;;;;;9.02;4.88;;;;;;;;;;5017468;28;20033;-81
2021/11/23 04:34:57;;;;;;;10.25;5.47;;;;;;;;;;5032356;28;20391;-78
2021/11/23 04:37:22;;;;;;;10.30;5.10;;;;;;;;;;5033573;28;20087;-80
2021/11/23 04:39:49;;;;;;;11.50;5.20;;;;;;;;;;5033491;28;20029;-80
2021/11/23 04:42:15;;;;;;;9.80;5.30;;;;;;;;;;5028477;28;20025;-83
2021/11/23 04:44:40;;;;;;;9.23;5.10;;;;;;;;;;5031495;28;20503;-78
2021/11/23 04:47:06;;;;;;;12.95;6.30;;;;;;;;;;5027434;28;20025;-81
2021/11/23 04:49:32;;;;;;;10.02;5.18;;;;;;;;;;5032099;28;20032;-82
2021/11/23 04:51:57;;;;;;;14.55;5.55;;;;;;;;;;5028602;28;20049;-83
2021/11/23 04:54:22;;;;;;;11.77;5.47;;;;;;;;;;5006074;28;20384;-82
2021/11/23 04:56:48;;;;;;;13.10;5.57;;;;;;;;;;5022095;28;20033;-83
2021/11/23 04:59:13;;;;;;;11.38;5.45;;;;;;;;;;5015691;28;20029;-78
2021/11/23 05:01:38;;;;;;;10.93;5.68;;;;;;;;;;5012704;28;20025;-82
2021/11/23 05:04:04;;;;;;;10.13;5.03;;;;;;;;;;5012008;28;20056;-83
2021/11/23 05:06:30;;;;;;;11.40;5.60;;;;;;;;;;5012439;28;20061;-82
2021/11/23 05:08:56;;;;;;;9.82;5.47;;;;;;;;;;5025915;28;20036;-80
2021/11/23 05:11:21;;;;;;;9.52;4.80;;;;;;;;;;5006927;28;20037;-83
2021/11/23 05:13:47;;;;;;;11.05;5.30;;;;;;;;;;5022388;28;20046;-83
2021/11/23 05:16:12;;;;;;;13.48;5.72;;;;;;;;;;5026767;28;20116;-81
2021/11/23 05:18:38;;;;;;;9.88;5.45;;;;;;;;;;5029910;28;20388;-82
2021/11/23 05:21:03;;;;;;;11.07;5.32;;;;;;;;;;5026985;28;20029;-82
2021/11/23 05:23:28;;;;;;;8.02;5.03;;;;;;;;;;5014831;28;20029;-81
2021/11/23 05:25:56;;;;;;;13.38;6.13;;;;;;;;;;5016696;28;20402;-82
2021/11/23 05:28:21;;;;;;;9.70;6.00;;;;;;;;;;5022951;28;20083;-82
2021/11/23 05:30:48;;;;;;;10.57;5.30;;;;;;;;;;5020718;28;20066;-79
2021/11/23 05:33:13;;;;;;;12.38;5.75;;;;;;;;;;5020764;28;20029;-82
2021/11/23 05:35:40;;;;;;;9.10;5.45;;;;;;;;;;5024224;28;20033;-82
2021/11/23 05:38:05;;;;;;;10.07;5.70;;;;;;;;;;5025224;28;20033;-81
2021/11/23 05:40:30;;;;;;;10.40;5.15;;;;;;;;;;5014490;28;20392;-79
2021/11/23 05:42:56;;;;;;;11.10;5.72;;;;;;;;;;5005828;28;20104;-80
2021/11/23 05:45:21;;;;;;;8.98;5.25;;;;;;;;;;5026126;28;20018;-81
2021/11/23 05:47:46;;;;;;;10.90;5.78;;;;;;;;;;5014289;28;20022;-78
2021/11/23 05:50:12;;;;;;;11.10;5.47;;;;;;;;;;5023542;28;20091;-81
2021/11/23 05:52:37;;;;;;;9.27;5.35;;;;;;;;;;5029776;28;20497;-82
2021/11/23 05:55:03;;;;;;;11.57;5.97;;;;;;;;;;5014607;28;20025;-81
2021/11/23 05:57:28;;;;;;;10.32;5.25;;;;;;;;;;5002238;28;20109;-80
2021/11/23 05:59:54;;;;;;;10.13;5.47;;;;;;;;;;5008973;28;20026;-78
2021/11/23 06:02:19;;;;;;;10.80;5.93;;;;;;;;;;5013201;28;20680;-83
2021/11/23 06:04:44;;;;;;;10.35;6.07;;;;;;;;;;5012516;28;20028;-82
2021/11/23 06:07:10;;;;;;;9.88;5.65;;;;;;;;;;5013597;28;20155;-80
2021/11/23 06:09:35;;;;;;;9.93;5.55;;;;;;;;;;5032379;28;20080;-79
2021/11/23 06:12:00;;;;;;;12.10;5.60;;;;;;;;;;5031270;28;20137;-83
2021/11/23 06:14:26;;;;;;;11.02;5.38;;;;;;;;;;5013130;28;20026;-78
2021/11/23 06:16:51;;;;;;;7.95;5.05;;;;;;;;;;5029920;28;20103;-82
2021/11/23 06:19:16;;;;;;;9.90;5.20;;;;;;;;;;5012051;28;20072;-80
2021/11/23 06:21:42;;;;;;;10.38;5.50;;;;;;;;;;5014810;28;20108;-81
2021/11/23 06:24:08;;;;;;;12.20;5.43;;;;;;;;;;5031622;28;20476;-82
2021/11/23 06:26:35;;;;;;;11.63;5.50;;;;;;;;;;5020634;28;20029;-80
2021/11/23 06:29:00;;;;;;;9.60;5.63;;;;;;;;;;5038061;28;20492;-78
2021/11/23 06:31:25;;;;;;;10.68;5.22;;;;;;;;;;5031991;28;20068;-78
2021/11/23 06:33:54;;;;;;;9.98;5.60;;;;;;;;;;5015476;28;20036;-81
2021/11/23 06:36:20;;;;;;;9.88;5.55;;;;;;;;;;5040738;28;20030;-79
2021/11/23 06:38:46;;;;;;;10.05;5.18;;;;;;;;;;5023536;28;20035;-81
2021/11/23 06:41:12;;;;;;;12.32;5.90;;;;;;;;;;5031836;28;21374;-79
2021/11/23 06:43:38;;;;;;;10.35;5.63;;;;;;;;;;5022338;28;20581;-82
2021/11/23 06:46:03;;;;;;;9.73;5.53;;;;;;;;;;5011453;28;20025;-78
2021/11/23 06:48:29;;;;;;;11.13;5.28;;;;;;;;;;5031621;28;20125;-82
2021/11/23 06:50:55;;;;;;;10.55;5.45;;;;;;;;;;5030882;28;20025;-82
2021/11/23 06:53:20;;;;;;;9.45;5.18;;;;;;;;;;5012878;28;20029;-82
2021/11/23 06:55:46;;;;;;;9.13;5.03;;;;;;;;;;5031926;28;20027;-82
2021/11/23 06:58:11;;;;;;;10.70;4.95;;;;;;;;;;5012809;28;20387;-81
2021/11/23 07:00:38;;;;;;;9.75;5.35;;;;;;;;;;5018083;28;20083;-78
2021/11/23 07:03:04;;;;;;;10.95;5.00;;;;;;;;;;5035254;28;20030;-83
2021/11/23 07:05:29;;;;;;;8.85;5.00;;;;;;;;;;5010750;28;20029;-78
2021/11/23 07:07:56;;;;;;;8.68;4.90;;;;;;;;;;5014865;28;20500;-81
2021/11/23 07:10:22;;;;;;;8.55;5.03;;;;;;;;;;5029902;28;20025;-81
2021/11/23 07:12:47;;;;;;;12.15;4.97;;;;;;;;;;5009121;28;20596;-83
2021/11/23 07:15:12;;;;;;;9.27;4.90;;;;;;;;;;5011072;28;20061;-82
2021/11/23 07:17:38;;;;;;;9.35;5.10;;;;;;;;;;5008469;28;20057;-81
2021/11/23 07:20:05;;;;;;;8.90;4.43;;;;;;;;;;5013126;28;20354;-83
2021/11/23 07:22:30;;;;;;;8.35;4.53;;;;;;;;;;5007736;28;20030;-81
2021/11/23 07:24:56;;;;;;;11.50;4.80;;;;;;;;;;5016337;28;20133;-79
2021/11/23 07:27:21;;;;;;;9.95;4.88;;;;;;;;;;5013655;28;20102;-79
2021/11/23 07:29:47;;;;;;;9.07;4.60;;;;;;;;;;5017185;28;20034;-82
2021/11/23 07:32:12;;;;;;;9.73;5.05;;;;;;;;;;5008929;28;20026;-82
2021/11/23 07:34:39;;;;;;;8.82;4.65;;;;;;;;;;4998425;28;20022;-82
2021/11/23 07:37:05;;;;;;;9.48;4.50;;;;;;;;;;5009284;28;20036;-81
2021/11/23 07:39:30;;;;;;;7.88;4.28;;;;;;;;;;5011116;28;20042;-79
2021/11/23 07:41:56;;;;;;;9.25;4.97;;;;;;;;;;5008082;28;20018;-82
2021/11/23 07:44:21;;;;;;;7.55;4.22;;;;;;;;;;4998755;28;20018;-82
2021/11/23 07:46:47;;;;;;;8.45;4.38;;;;;;;;;;5011947;28;20072;-82
2021/11/23 07:49:12;;;;;;;8.75;4.63;;;;;;;;;;5004820;28;20106;-81
2021/11/23 07:51:38;;;;;;;7.88;4.28;;;;;;;;;;4993783;28;20029;-82
2021/11/23 07:54:04;;;;;;;8.85;4.72;;;;;;;;;;4997246;28;20087;-82
2021/11/23 07:56:29;;;;;;;9.23;4.45;;;;;;;;;;5010424;28;20076;-81
2021/11/23 07:58:55;;;;;;;9.07;4.38;;;;;;;;;;5010314;28;20473;-83
2021/11/23 08:01:20;;;;;;;8.48;4.38;;;;;;;;;;4992474;28;20034;-82
2021/11/23 08:03:45;;;;;;;8.48;4.38;;;;;;;;;;5001394;28;20354;-82
2021/11/23 08:06:11;;;;;;;9.73;4.40;;;;;;;;;;5019463;28;20043;-81
2021/11/23 08:08:38;;;;;;;8.30;4.20;;;;;;;;;;5019362;28;20038;-82
2021/11/23 08:11:03;;;;;;;6.25;4.05;;;;;;;;;;5022605;28;20029;-80
2021/11/23 08:13:29;;;;;;;11.02;4.90;;;;;;;;;;5018161;28;20053;-82
2021/11/23 08:15:55;;;;;;;11.07;5.32;;;;;;;;;;5010296;28;20021;-83
2021/11/23 08:18:20;;;;;;;9.52;4.82;;;;;;;;;;5008926;28;20543;-80
2021/11/23 08:20:49;;;;;;;8.20;4.72;;;;;;;;;;5011604;28;20029;-82
2021/11/23 08:23:14;;;;;;;8.70;4.95;;;;;;;;;;4997820;28;20038;-82
2021/11/23 08:25:40;;;;;;;9.60;5.00;;;;;;;;;;5020306;28;20515;-81
2021/11/23 08:28:06;;;;;;;10.38;5.10;;;;;;;;;;4989404;28;20107;-78
2021/11/23 08:30:32;;;;;;;10.80;4.97;;;;;;;;;;4990089;28;20034;-80
2021/11/23 08:32:57;;;;;;;11.25;5.07;;;;;;;;;;5006099;28;20032;-79
2021/11/23 08:35:23;;;;;;;12.40;5.30;;;;;;;;;;5008222;28;20026;-81
2021/11/23 08:37:49;;;;;;;8.63;4.97;;;;;;;;;;5004997;28;20038;-81
2021/11/23 08:40:14;;;;;;;8.70;5.07;;;;;;;;;;5007481;28;20477;-81
2021/11/23 08:42:40;;;;;;;9.63;5.25;;;;;;;;;;5008852;28;20037;-78
2021/11/23 08:45:08;;;;;;;7.80;4.43;;;;;;;;;;4993278;28;20060;-80
2021/11/23 08:47:34;;;;;;;8.63;4.97;;;;;;;;;;4993545;28;20022;-81
2021/11/23 08:50:00;;;;;;;12.20;5.38;;;;;;;;;;5006534;28;20030;-82
2021/11/23 08:52:28;;;;;;;9.70;5.47;;;;;;;;;;5002823;28;20034;-81
2021/11/23 08:54:54;;;;;;;9.88;5.18;;;;;;;;;;5010490;28;20097;-82
2021/11/23 08:57:20;;;;;;;10.25;5.47;;;;;;;;;;5004633;28;20079;-82
2021/11/23 08:59:49;;;;;;;10.88;5.38;;;;;;;;;;5001739;28;20077;-80
2021/11/23 09:02:15;;;;;;;10.73;5.63;;;;;;;;;;4992770;28;20034;-79
2021/11/23 09:04:41;;;;;;;11.48;5.32;;;;;;;;;;5004407;28;20548;-82
2021/11/23 09:07:11;;;;;;;13.77;5.53;;;;;;;;;;5007553;28;20030;-82
2021/11/23 09:09:41;;;;;;;10.10;5.35;;;;;;;;;;5006356;28;20048;-81
2021/11/23 09:12:07;;;;;;;9.55;5.10;;;;;;;;;;5011984;28;20064;-81
2021/11/23 09:14:34;;;;;;;10.18;5.65;;;;;;;;;;5013195;28;20564;-80
2021/11/23 09:17:06;;;;;;;12.73;6.18;;;;;;;;;;5011940;28;20061;-78
2021/11/23 09:19:32;;;;;;;16.05;6.60;;;;;;;;;;4993320;28;20022;-82
2021/11/23 09:21:57;;;;;;;11.05;6.20;;;;;;;;;;5010424;28;20029;-78
2021/11/23 09:24:23;;;;;;;9.55;5.80;;;;;;;;;;5011073;28;20461;-82
2021/11/23 09:26:51;;;;;;;10.00;6.03;;;;;;;;;;5003664;28;20068;-81
2021/11/23 09:29:17;;;;;;;10.68;6.45;;;;;;;;;;4993559;28;20034;-81
2021/11/23 09:31:43;;;;;;;10.43;6.20;;;;;;;;;;5004581;28;20504;-78
2021/11/23 09:34:11;;;;;;;11.05;6.47;;;;;;;;;;4993511;28;20029;-81
2021/11/23 09:36:37;;;;;;;11.73;6.82;;;;;;;;;;5008372;28;20495;-81
2021/11/23 09:39:03;;;;;;;15.55;6.85;;;;;;;;;;5003238;28;20037;-80
2021/11/23 09:41:29;;;;;;;12.32;6.90;;;;;;;;;;4995833;28;20072;-82
2021/11/23 09:43:54;;;;;;;11.40;7.10;;;;;;;;;;4993843;28;20069;-82
2021/11/23 09:46:20;;;;;;;12.70;7.63;;;;;;;;;;5010462;28;20026;-82
2021/11/23 09:48:46;;;;;;;12.07;7.22;;;;;;;;;;5008373;28;20029;-82
2021/11/23 09:51:23;;;;;;;12.45;6.78;;;;;;;;;;5009063;28;20026;-80
2021/11/23 09:53:49;;;;;;;12.00;7.35;;;;;;;;;;4993211;28;20038;-82
2021/11/23 09:56:14;;;;;;;13.00;7.82;;;;;;;;;;5005521;28;20084;-79
2021/11/23 09:58:40;;;;;;;10.30;6.82;;;;;;;;;;5007882;28;20393;-82
2021/11/23 10:01:08;;;;;;;11.77;6.88;;;;;;;;;;5008885;28;20558;-82
2021/11/23 10:03:34;;;;;;;12.50;6.90;;;;;;;;;;5012445;28;20018;-82
2021/11/23 10:06:08;;;;;;;14.35;7.22;;;;;;;;;;5007910;28;20356;-81
2021/11/23 10:08:35;;;;;;;12.90;7.28;;;;;;;;;;4996635;28;20136;-82
2021/11/23 10:11:00;;;;;;;12.77;7.43;;;;;;;;;;5008638;28;20389;-81
2021/11/23 10:13:45;;;;;;;9.70;6.55;;;;;;;;;;4992389;28;20053;-79
2021/11/23 10:16:12;;;;;;;10.43;7.05;;;;;;;;;;5002633;28;20069;-81
2021/11/23 10:18:50;;;;;;;15.10;7.63;;;;;;;;;;4992534;28;20029;-81
2021/11/23 10:21:17;;;;;;;12.68;7.25;;;;;;;;;;4991489;28;20045;-81
2021/11/23 10:23:47;;;;;;;13.70;7.85;;;;;;;;;;5006374;28;20033;-80
2021/11/23 10:26:21;;;;;;;14.57;8.65;;;;;;;;;;5004433;28;20071;-78
2021/11/23 10:28:55;;;;;;;14.10;8.25;;;;;;;;;;5006274;28;20038;-82
2021/11/23 10:31:23;;;;;;;13.18;7.93;;;;;;;;;;4983990;28;20041;-78
2021/11/23 10:33:58;;;;;;;14.77;8.25;;;;;;;;;;5005231;28;20022;-80
2021/11/23 10:36:29;;;;;;;10.60;7.55;;;;;;;;;;4974283;28;20037;-81
2021/11/23 10:39:03;;;;;;;16.80;8.07;;;;;;;;;;4991107;28;20092;-79
2021/11/23 10:41:28;;;;;;;14.68;8.32;;;;;;;;;;4977434;28;20560;-81
2021/11/23 10:43:53;;;;;;;13.55;7.25;;;;;;;;;;4977113;28;20026;-79
2021/11/23 10:46:22;;;;;;;12.85;8.07;;;;;;;;;;4974343;28;20088;-80
2021/11/23 10:48:56;;;;;;;13.10;7.35;;;;;;;;;;4974801;28;20038;-81
2021/11/23 10:51:22;;;;;;;11.45;7.32;;;;;;;;;;4979607;28;20045;-81
2021/11/23 10:53:49;;;;;;;14.20;8.10;;;;;;;;;;4976732;28;20134;-81
2021/11/23 10:56:17;;;;;;;13.00;8.50;;;;;;;;;;4988847;28;20042;-81
2021/11/23 10:58:46;;;;;;;14.13;8.40;;;;;;;;;;4983054;28;20029;-79
2021/11/23 11:01:12;;;;;;;12.95;7.72;;;;;;;;;;4994408;28;20399;-81
2021/11/23 11:03:40;;;;;;;15.82;8.13;;;;;;;;;;4980839;28;20037;-80
2021/11/23 11:06:14;;;;;;;14.60;7.63;;;;;;;;;;4979268;28;20065;-81
2021/11/23 11:08:45;;;;;;;12.95;7.30;;;;;;;;;;4985147;28;20505;-80
2021/11/23 11:11:17;;;;;;;12.50;7.57;;;;;;;;;;4995896;28;20341;-81
2021/11/23 11:13:47;;;;;;;13.15;7.53;;;;;;;;;;4995311;28;20050;-78
2021/11/23 11:16:15;;;;;;;15.25;7.78;;;;;;;;;;4994868;28;20462;-80
2021/11/23 11:18:40;;;;;;;10.15;7.30;;;;;;;;;;5013893;28;20571;-81
2021/11/23 11:21:23;;;;;;;11.30;7.40;;;;;;;;;;4993288;28;20026;-78
2021/11/23 11:23:53;;;;;;;11.25;6.38;;;;;;;;;;5014252;28;20037;-81
2021/11/23 11:26:36;;;;;;;15.00;7.53;;;;;;;;;;4997405;28;20610;-79
2021/11/23 11:29:02;;;;;;;14.65;7.40;;;;;;;;;;5010385;28;20417;-81
2021/11/23 11:31:32;;;;;;;10.93;7.88;;;;;;;;;;5013629;28;20087;-81
2021/11/23 11:34:17;;;;;;;12.82;8.20;;;;;;;;;;4995141;28;20464;-80
2021/11/23 11:36:45;;;;;;;12.88;7.53;;;;;;;;;;5010781;28;20157;-81
2021/11/23 11:39:35;;;;;;;15.48;8.38;;;;;;;;;;5013894;28;20119;-79
2021/11/23 11:42:00;;;;;;;12.25;7.75;;;;;;;;;;5010449;28;20564;-81
2021/11/23 11:44:39;;;;;;;12.40;8.77;;;;;;;;;;5013624;28;20463;-80
2021/11/23 11:47:09;;;;;;;12.60;7.97;;;;;;;;;;4994015;28;20083;-81
2021/11/23 11:49:55;;;;;;;14.02;8.63;;;;;;;;;;4998673;28;20467;-81
2021/11/23 11:52:23;;;;;;;14.00;8.27;;;;;;;;;;4987688;28;20040;-80
2021/11/23 11:55:13;;;;;;;11.05;7.10;;;;;;;;;;5022981;28;20033;-78
2021/11/23 11:57:44;;;;;;;9.75;6.43;;;;;;;;;;5001006;28;20119;-81
2021/11/23 12:00:35;;;;;;;12.95;6.90;;;;;;;;;;5019627;28;20124;-81
2021/11/23 12:03:18;;;;;;;9.95;6.85;;;;;;;;;;5007329;28;20108;-81
2021/11/23 12:05:46;;;;;;;13.25;7.60;;;;;;;;;;5009119;28;20025;-79
2021/11/23 12:08:23;;;;;;;18.88;7.22;;;;;;;;;;5007744;28;20372;-81
2021/11/23 12:11:00;;;;;;;12.70;6.75;;;;;;;;;;5018373;28;20602;-81
2021/11/23 12:13:46;;;;;;;9.55;5.97;;;;;;;;;;5008416;28;20049;-81
2021/11/23 12:16:36;;;;;;;10.27;5.85;;;;;;;;;;5016240;28;20080;-81
2021/11/23 12:19:47;;;;;;;9.73;5.75;;;;;;;;;;5032752;28;20488;-80
2021/11/23 12:22:25;;;;;;;12.68;6.13;;;;;;;;;;5011583;28;20460;-78
2021/11/23 12:25:01;;;;;;;8.45;5.85;;;;;;;;;;5033511;28;20037;-81
2021/11/23 12:27:36;;;;;;;13.07;6.20;;;;;;;;;;5032516;28;20121;-78
2021/11/23 12:30:05;;;;;;;11.80;6.60;;;;;;;;;;5019154;28;20034;-80
2021/11/23 12:32:38;;;;;;;12.82;6.47;;;;;;;;;;5010241;28;20494;-77
2021/11/23 12:35:09;;;;;;;12.47;6.37;;;;;;;;;;5015839;28;20472;-81
2021/11/23 12:37:43;;;;;;;11.32;6.35;;;;;;;;;;5030057;28;20385;-80
2021/11/23 12:40:11;;;;;;;10.88;6.32;;;;;;;;;;5031907;28;20385;-81
2021/11/23 12:42:50;;;;;;;10.23;6.63;;;;;;;;;;5016784;28;20029;-81
2021/11/23 12:45:42;;;;;;;13.20;6.10;;;;;;;;;;5007084;28;20033;-82
2021/11/23 12:48:13;;;;;;;10.13;5.93;;;;;;;;;;5007587;28;20025;-81
2021/11/23 12:50:39;;;;;;;8.32;5.50;;;;;;;;;;5016610;28;20400;-81
2021/11/23 12:56:11;;;;;;;10.10;6.00;;;;;;;;;;5003815;28;20038;-81
2021/11/23 12:58:40;;;;;;;10.07;6.00;;;;;;;;;;5026574;28;20033;-81
2021/11/23 13:01:39;;;;;;;7.65;3.53;;;;;;;;;;5015870;28;20032;-79
2021/11/23 13:04:11;;;;;;;5.03;2.20;;;;;;;;;;5028223;28;20029;-81
2021/11/23 13:07:12;;;;;;;4.82;1.98;;;;;;;;;;5031018;28;20112;-80
2021/11/23 13:13:43;;;;;;;8.90;2.70;;;;;;;;;;4958631;28;20525;-77
2021/11/23 13:16:17;;;;;;;4.68;2.40;;;;;;;;;;4981750;28;20097;-81
2021/11/23 13:18:42;;;;;;;5.50;2.38;;;;;;;;;;4999573;28;20029;-77
2021/11/23 13:21:14;;;;;;;5.32;2.40;;;;;;;;;;5001291;28;20096;-81
2021/11/23 13:23:50;;;;;;;6.70;2.47;;;;;;;;;;5003799;28;20401;-77
2021/11/23 13:26:18;;;;;;;4.38;2.30;;;;;;;;;;4972466;28;20059;-78
2021/11/23 13:29:46;;;;;;;5.55;2.00;;;;;;;;;;4975448;28;20129;-80
2021/11/23 13:32:17;;;;;;;5.40;1.40;;;;;;;;;;4947842;28;20133;-81
2021/11/23 13:34:45;;;;;;;3.03;1.30;;;;;;;;;;4939989;29;20031;-81
2021/11/23 13:37:16;;;;;;;3.95;1.45;;;;;;;;;;4954647;28;20047;-81
2021/11/23 13:39:51;;;;;;;3.33;1.38;;;;;;;;;;4956101;28;20480;-81
2021/11/23 13:42:21;;;;;;;2.90;1.20;;;;;;;;;;4960149;28;20130;-77
2021/11/23 13:44:47;;;;;;;3.30;1.08;;;;;;;;;;4952891;28;20031;-81
2021/11/23 13:47:19;;;;;;;2.83;0.90;;;;;;;;;;4968825;28;20128;-80
2021/11/23 13:49:47;;;;;;;5.72;1.10;;;;;;;;;;4970619;28;20042;-81
2021/11/23 13:52:21;;;;;;;2.20;0.80;;;;;;;;;;4971017;28;20508;-81
2021/11/23 13:55:18;;;;;;;1.85;0.80;;;;;;;;;;4971858;28;20027;-82
2021/11/23 13:57:50;;;;;;;2.65;1.15;;;;;;;;;;4972632;28;20025;-80
2021/11/23 14:00:51;;;;;;;4.35;1.20;;;;;;;;;;5011614;28;20065;-80
2021/11/23 14:03:51;;;;;;;3.72;1.20;;;;;;;;;;4955051;28;20122;-80
2021/11/23 14:06:20;;;;;;;5.57;1.40;;;;;;;;;;4963102;28;20614;-81
2021/11/23 14:08:59;;;;;;;2.95;1.38;;;;;;;;;;4992653;28;20026;-80
2021/11/23 14:11:24;;;;;;;2.50;1.45;;;;;;;;;;5006022;28;20040;-80
2021/11/23 14:13:51;;;;;;;3.05;1.30;;;;;;;;;;5025569;28;20050;-82
2021/11/23 14:16:22;;;;;;;3.25;1.33;;;;;;;;;;5033056;28;20048;-81
2021/11/23 14:19:22;;;;;;;2.58;1.40;;;;;;;;;;5014187;28;20124;-81
2021/11/23 14:21:59;;;;;;;3.58;1.63;;;;;;;;;;5023867;28;20104;-80
2021/11/23 14:25:10;;;;;;;;;;;;;;;;;;;;;
2021/11/23 14:28:25;;;;;;;3.53;1.30;;;;;;;;;;5031376;28;20037;-81
2021/11/23 14:30:54;;;;;;;3.80;1.55;;;;;;;;;;5025871;28;20435;-81
2021/11/23 14:33:26;;;;;;;4.60;1.83;;;;;;;;;;5015879;28;20116;-81
2021/11/23 14:35:56;;;;;;;3.87;1.47;;;;;;;;;;5014430;28;20025;-80
2021/11/23 14:38:25;;;;;;;3.70;1.40;;;;;;;;;;5032707;28;20488;-82
2021/11/23 14:40:59;;;;;;;2.33;1.20;;;;;;;;;;5024099;28;20032;-81
2021/11/23 14:43:30;;;;;;;2.08;1.30;;;;;;;;;;5031752;28;20029;-80
2021/11/23 14:45:56;;;;;;;2.55;1.50;;;;;;;;;;5027875;28;20029;-77
2021/11/23 14:48:28;;;;;;;2.53;1.30;;;;;;;;;;5031039;28;20393;-80
2021/11/23 14:50:57;;;;;;;2.78;1.42;;;;;;;;;;5014052;28;20030;-81
2021/11/23 14:53:29;;;;;;;2.95;1.13;;;;;;;;;;5003716;28;21012;-81
2021/11/23 14:55:57;;;;;;;4.85;1.80;;;;;;;;;;5011415;28;20025;-81